Big Bear Station Historical Data
Daily Summary for June 12, 2019 Units:  English    Metric   Both
Next Day »
Daily Weekly Monthly Yearly Custom
  High: Low: Average:
Temperature: 85.3 °F 56.5 °F 75.4 °F
Dew Point: 50.2 °F 37.6 °F 44.3 °F
Humidity: 78% 20% 35%
Wind Speed: 8.9mph 0mph 3.3mph
Wind Gust: -999mph - -
Wind- - SW
Pressure: 23.67 in 23.58 in -
Precipitation: 0 in    
Historical Graphs
 
 
Tabular Data for June 12, 2019
Time Temperature Dew Point Pressure Wind Wind Speed Wind Gust Humidity Rainfall Rate (Hourly)
08:18 56.5 °F 49.7 °F 23.67 in Calm   -999 mph 78% 0.00 in
08:33 58.8 °F 50.2 °F 23.67 in Calm   -999 mph 73% 0.00 in
08:48 62.6 °F 45.2 °F 23.67 in Calm   -999 mph 53% 0.00 in
09:04 66.9 °F 43.1 °F 23.67 in NW 4.2 mph -999 mph 42% 0.00 in
09:19 70.2 °F 42 °F 23.67 in South 4.7 mph -999 mph 36% 0.00 in
09:34 71.1 °F 42.8 °F 23.67 in SSE 3.2 mph -999 mph 36% 0.00 in
09:49 72.7 °F 43.5 °F 23.66 in South 1.7 mph -999 mph 35% 0.00 in
10:04 73.8 °F 42.1 °F 23.67 in West 1.7 mph -999 mph 32% 0.00 in
10:20 73.8 °F 38.7 °F 23.66 in Calm   -999 mph 28% 0.00 in
10:35 74.3 °F 39.1 °F 23.66 in WNW 2.2 mph -999 mph 28% 0.00 in
10:50 75.4 °F 41.8 °F 23.66 in WNW 3.7 mph -999 mph 30% 0.00 in
11:05 75.7 °F 42.1 °F 23.66 in NNW 2.7 mph -999 mph 30% 0.00 in
11:21 76.5 °F 41.9 °F 23.66 in NW 3.2 mph -999 mph 29% 0.00 in
11:36 78.1 °F 41.4 °F 23.66 in ESE 5.8 mph -999 mph 27% 0.00 in
11:51 78.6 °F 43.7 °F 23.66 in West 6.8 mph -999 mph 29% 0.00 in
12:06 79.9 °F 42.9 °F 23.66 in South 5.8 mph -999 mph 27% 0.00 in
12:22 80.1 °F 44.1 °F 23.66 in NE 3.2 mph -999 mph 28% 0.00 in
12:37 81.9 °F 42.6 °F 23.66 in NNW 7.3 mph -999 mph 25% 0.00 in
12:52 82.4 °F 43.1 °F 23.66 in North 5.3 mph -999 mph 25% 0.00 in
13:07 82.9 °F 43.5 °F 23.66 in NW 3.7 mph -999 mph 25% 0.00 in
13:22 81.3 °F 37.6 °F 23.65 in South 4.7 mph -999 mph 21% 0.00 in
13:38 82.9 °F 37.7 °F 23.65 in SE 4.2 mph -999 mph 20% 0.00 in
13:53 84.2 °F 38.8 °F 23.64 in South 4.7 mph -999 mph 20% 0.00 in
14:08 83.7 °F 42 °F 23.64 in South 5.3 mph -999 mph 23% 0.00 in
14:24 83.5 °F 41.8 °F 23.64 in WSW 5.3 mph -999 mph 23% 0.00 in
14:39 82.8 °F 40.1 °F 23.64 in ESE 4.7 mph -999 mph 22% 0.00 in
14:54 83.7 °F 42 °F 23.64 in NW 7.3 mph -999 mph 23% 0.00 in
15:09 82 °F 41.7 °F 23.64 in East 2.7 mph -999 mph 24% 0.00 in
15:24 82.9 °F 43.5 °F 23.63 in ESE 4.2 mph -999 mph 25% 0.00 in
15:40 82 °F 43.7 °F 23.62 in ESE 2.2 mph -999 mph 26% 0.00 in
15:55 81.3 °F 43.1 °F 23.61 in South 8.9 mph -999 mph 26% 0.00 in
16:11 80.6 °F 44.5 °F 23.61 in East 1.7 mph -999 mph 28% 0.00 in
16:26 80.8 °F 45.6 °F 23.61 in NNW 4.2 mph -999 mph 29% 0.00 in
16:41 82.2 °F 44.9 °F 23.61 in North 2.2 mph -999 mph 27% 0.00 in
16:56 85.3 °F 49.5 °F 23.61 in NW 4.7 mph -999 mph 29% 0.00 in
17:12 82 °F 46.6 °F 23.61 in NNE 4.2 mph -999 mph 29% 0.00 in
17:27 82.8 °F 47.3 °F 23.60 in WSW 8.9 mph -999 mph 29% 0.00 in
17:42 81.1 °F 44 °F 23.59 in NNW 5.8 mph -999 mph 27% 0.00 in
17:58 81 °F 45.8 °F 23.59 in South 2.2 mph -999 mph 29% 0.00 in
18:13 79.3 °F 44.3 °F 23.59 in NW 2.7 mph -999 mph 29% 0.00 in
18:29 81.3 °F 48.6 °F 23.59 in WNW 4.2 mph -999 mph 32% 0.00 in
18:44 79.2 °F 45.1 °F 23.58 in SW 5.3 mph -999 mph 30% 0.00 in
18:59 78.1 °F 48.2 °F 23.58 in NW 2.2 mph -999 mph 35% 0.00 in
19:14 74.5 °F 47.9 °F 23.58 in ESE 1.7 mph -999 mph 39% 0.00 in
19:29 70.3 °F 48 °F 23.59 in NW 3.7 mph -999 mph 45% 0.00 in
19:45 68 °F 49.2 °F 23.59 in Calm   -999 mph 51% 0.00 in
20:00 66.2 °F 48.6 °F 23.58 in ESE 1.1 mph -999 mph 53% 0.00 in
20:15 65.1 °F 48 °F 23.59 in NNW 2.2 mph -999 mph 54% 0.00 in
20:30 64 °F 48 °F 23.59 in Calm   -999 mph 56% 0.00 in
20:45 63.1 °F 46.7 °F 23.59 in Calm   -999 mph 55% 0.00 in
21:01 62.4 °F 46.5 °F 23.59 in NNW 2.7 mph -999 mph 56% 0.00 in
21:16 61.9 °F 46.5 °F 23.59 in Calm   -999 mph 57% 0.00 in
21:31 61.5 °F 46.1 °F 23.59 in Calm   -999 mph 57% 0.00 in
21:46 60.6 °F 45.7 °F 23.59 in Calm   -999 mph 58% 0.00 in
Big Bear CA Weather